Dirección General De Aeronáutica Civil

Dirección Meteorológica de Chile - Servicios Climáticos

Informe General de Control de Calidad de la Estación

Listado de niveles de control de calidad para algunos parámetros
Estación Lonquimay (380018)
Fecha de Revisión de los datos :

Elementos

Registros Niveles de Control Total
Nivel 0 Nivel 1 Nivel 2 Nivel 3 Errores Porcentaje
01 Temperatura del Aire Seco 36.646 0 . 0 . 0 . 0 . 0 0.00 %
02 Temperatura de Rocío 36.648 0 . 0 . 0 . 0 . 0 0.00 %
03 Humedad Relativa del Aire 36.855 0 . 0 . 0 . 0 . 0 0.00 %
04 Temperatura Máxima PM 1.457 0 . 0 . 31 2.13 % 0 . 31 2.13 %
05 Temperatura Mínima AM 979 0 . 0 . 6 0.61 % 0 . 6 0.61 %
06 Viento a 10 m. de Altura 36.939 0 . 0 . 0 . 0 . 0 0.00 %
07 Agua Caida, Acumulada 6 Horas 5.798 0 . 0 . 0 . 0 . 0 0.00 %
08 Presión Atm. a Nivel de Estación (QFE) 36.938 0 . 0 . 0 . 0 . 0 0.00 %
09 Presión Atm. a Nivel Medio del Mar (QFF) 36.658 0 . 0 . 0 . 0 . 0 0.00 %
10 Presión Atm. Estándar OACI (QNH) 36.937 0 . 0 . 0 . 0 . 0 0.00 %

Totales

265.855 . 0.0000 % . 0.0000 % . 0.0139 % . 0.0000 % 37 0.0139 %

Detalle de Errores Encontrados

Nivel Fecha del Dato Descripción Información Error Fecha Ingreso
2 2014-07-28 00:00:00 Temperatura 7.2 del 27-07-2014 19:00, Mayor que la Máxima 4.5 28-07-2014 00:00 7.2 -- 4.5 2014-07-28 16:39:00
2 2014-10-22 00:00:00 Temperatura 23.6 del 21-10-2014 18:00, Mayor que la Máxima 23.1 22-10-2014 00:00 23.6 -- 23.1 2014-10-22 00:22:00
2 2017-07-10 00:00:00 Temperatura 7.5 del 09-07-2017 19:00, Mayor que la Máxima 7.3 10-07-2017 00:00 7.5 -- 7.3 2017-07-10 15:37:00
2 2017-11-05 00:00:00 Temperatura 13.1 del 04-11-2017 18:00, Mayor que la Máxima 12.7 05-11-2017 00:00 13.1 -- 12.7 2017-11-05 14:22:00
2 2018-09-15 00:00:00 Temperatura 20.6 del 14-09-2018 18:00, Mayor que la Máxima 12.3 15-09-2018 00:00 20.6 -- 12.3 2018-09-15 00:22:00
2 2022-02-02 00:00:00 Temperatura 26.3 del 01-02-2022 18:00, Mayor que la Máxima 25.9 02-02-2022 00:00 26.3 -- 25.9 2022-02-04 16:31:00
2 2022-02-09 00:00:00 Temperatura 28.3 del 08-02-2022 19:00, Mayor que la Máxima 26.6 09-02-2022 00:00 28.3 -- 26.6 2022-02-09 14:21:00
2 2022-02-10 00:00:00 Temperatura 28.3 del 09-02-2022 17:00, Mayor que la Máxima 26.6 10-02-2022 00:00 28.3 -- 26.6 2022-02-10 14:06:00
2 2022-02-15 00:00:00 Temperatura 28.0 del 14-02-2022 18:00, Mayor que la Máxima 26.6 15-02-2022 00:00 28.0 -- 26.6 2022-02-18 14:21:00
2 2022-11-21 00:00:00 Temperatura 21.2 del 20-11-2022 20:00, Mayor que la Máxima 18.4 21-11-2022 00:00 21.2 -- 18.4 2022-11-21 19:15:00
2 2022-12-14 00:00:00 Temperatura 24.0 del 13-12-2022 17:00, Mayor que la Máxima 21.4 14-12-2022 00:00 24.0 -- 21.4 2022-12-14 14:09:00
2 2023-01-18 00:00:00 Temperatura 28.2 del 17-01-2023 17:00, Mayor que la Máxima 28.0 18-01-2023 00:00 28.2 -- 28.0 2023-01-18 15:09:00
2 2023-02-05 00:00:00 Temperatura 36.3 del 04-02-2023 21:00, Mayor que la Máxima 32.3 05-02-2023 00:00 36.3 -- 32.3 2023-02-09 15:35:00
2 2023-02-12 00:00:00 Temperatura 26.0 del 11-02-2023 17:00, Mayor que la Máxima 22.9 12-02-2023 00:00 26.0 -- 22.9 2023-02-12 00:09:00
2 2023-02-15 00:00:00 Temperatura 20.6 del 14-02-2023 20:00, Mayor que la Máxima 18.2 15-02-2023 00:00 20.6 -- 18.2 2023-02-15 00:09:00
2 2023-02-22 00:00:00 Temperatura 29.9 del 21-02-2023 18:00, Mayor que la Máxima 29.8 22-02-2023 00:00 29.9 -- 29.8 2023-02-22 02:09:00
2 2023-02-23 00:00:00 Temperatura 25.9 del 22-02-2023 17:00, Mayor que la Máxima 24.6 23-02-2023 00:00 25.9 -- 24.6 2023-02-23 00:09:00
2 2023-02-26 00:00:00 Temperatura 17.0 del 25-02-2023 20:00, Mayor que la Máxima 15.9 26-02-2023 00:00 17.0 -- 15.9 2023-02-26 01:50:00
2 2023-03-28 00:00:00 Temperatura 23.7 del 27-03-2023 18:00, Mayor que la Máxima 20.6 28-03-2023 00:00 23.7 -- 20.6 2023-03-28 00:09:00
2 2023-04-08 00:00:00 Temperatura 24.7 del 07-04-2023 20:00, Mayor que la Máxima 19.0 08-04-2023 00:00 24.7 -- 19.0 2023-04-08 03:36:00
2 2023-04-18 00:00:00 Temperatura 11.4 del 17-04-2023 18:00, Mayor que la Máxima 6.2 18-04-2023 00:00 11.4 -- 6.2 2023-04-18 00:09:00
2 2023-04-19 00:00:00 Temperatura 11.7 del 18-04-2023 19:00, Mayor que la Máxima 9.6 19-04-2023 00:00 11.7 -- 9.6 2023-04-19 00:09:00
2 2023-04-30 00:00:00 Temperatura 8.3 del 29-04-2023 16:00, Mayor que la Máxima 7.7 30-04-2023 00:00 8.3 -- 7.7 2023-04-30 02:51:00
2 2023-05-01 00:00:00 Temperatura 8.1 del 30-04-2023 18:00, Mayor que la Máxima 4.6 01-05-2023 00:00 8.1 -- 4.6 2023-05-01 03:21:00
2 2023-05-04 00:00:00 Temperatura 15.2 del 03-05-2023 20:00, Mayor que la Máxima 14.3 04-05-2023 00:00 15.2 -- 14.3 2023-05-04 00:36:00
2 2023-05-08 00:00:00 Temperatura 17.4 del 07-05-2023 20:00, Mayor que la Máxima 8.8 08-05-2023 00:00 17.4 -- 8.8 2023-05-08 00:09:00
2 2023-07-13 00:00:00 Temperatura 5.7 del 12-07-2023 20:00, Mayor que la Máxima 1.3 13-07-2023 00:00 5.7 -- 1.3 2023-07-13 00:09:00
2 2023-07-19 00:00:00 Temperatura 1.9 del 18-07-2023 20:00, Mayor que la Máxima 1.5 19-07-2023 00:00 1.9 -- 1.5 2023-07-19 03:09:00
2 2023-08-01 00:00:00 Temperatura 17.5 del 31-07-2023 17:00, Mayor que la Máxima 16.8 01-08-2023 00:00 17.5 -- 16.8 2023-08-01 04:51:00
2 2023-08-18 00:00:00 Temperatura 6.3 del 17-08-2023 17:00, Mayor que la Máxima 5.8 18-08-2023 00:00 6.3 -- 5.8 2023-08-18 00:09:00
2 2023-08-19 00:00:00 Temperatura 6.5 del 18-08-2023 20:00, Mayor que la Máxima 4.6 19-08-2023 00:00 6.5 -- 4.6 2023-08-19 00:09:00
2 2014-09-06 12:00:00 Temperatura 2.7 del 06-09-2014 06:00, Menor que la Mínima 4.4 06-09-2014 12:00 2.7 -- 4.4 2014-09-06 17:24:00
2 2014-09-26 12:00:00 Temperatura 0.9 del 26-09-2014 12:00, Menor que la Mínima 1.9 26-09-2014 12:00 0.9 -- 1.9 2014-09-26 17:22:00
2 2014-10-05 12:00:00 Temperatura 2.7 del 05-10-2014 06:00, Menor que la Mínima 3.6 05-10-2014 12:00 2.7 -- 3.6 2014-10-05 17:22:00
2 2017-10-25 12:00:00 Temperatura 3.8 del 25-10-2017 06:00, Menor que la Mínima 8.7 25-10-2017 12:00 3.8 -- 8.7 2017-10-25 13:22:00
2 2023-08-15 12:00:00 Temperatura 8.2 del 15-08-2023 05:00, Menor que la Mínima 9.5 15-08-2023 12:00 8.2 -- 9.5 2023-08-15 14:09:00
2 2023-08-30 12:00:00 Temperatura 0.0 del 30-08-2023 05:00, Menor que la Mínima 2.4 30-08-2023 12:00 0.0 -- 2.4 2023-09-03 14:36:00
Errores del Nivel 37
Informe generado el 05-03-2024 10:20
Requerimiento: RE6001